createdAt,value
2019-04-26T00:01:22.027Z,100091.28
2019-04-26T00:03:54.328Z,100105.80
2019-04-26T00:06:24.073Z,100110.50
2019-04-26T00:08:59.768Z,100098.36
2019-04-26T00:11:43.560Z,100094.06
2019-04-26T00:14:47.458Z,100099.09
2019-04-26T00:17:22.393Z,100084.36
2019-04-26T00:19:52.455Z,100078.30
2019-04-26T00:22:22.267Z,100079.61
2019-04-26T00:24:51.746Z,100069.40
2019-04-26T00:27:24.677Z,100070.34
2019-04-26T00:29:54.208Z,100075.03
2019-04-26T00:32:23.737Z,100064.42
2019-04-26T00:34:53.152Z,100061.03
2019-04-26T00:37:22.699Z,100057.70
2019-04-26T00:39:52.148Z,100072.59
2019-04-26T00:42:22.696Z,100068.16
2019-04-26T00:44:52.298Z,100063.02
2019-04-26T00:47:27.081Z,100063.02
2019-04-26T00:49:57.793Z,100061.16
2019-04-26T00:52:28.078Z,100049.61
2019-04-26T00:55:01.021Z,100066.89
2019-04-26T00:57:31.829Z,100078.78
2019-04-26T01:00:02.303Z,100092.89
2019-04-26T01:02:40.118Z,100095.50
2019-04-26T01:05:09.644Z,100091.18
2019-04-26T01:07:39.785Z,100099.84
2019-04-26T01:10:09.219Z,100110.72
2019-04-26T01:12:38.641Z,100093.98
2019-04-26T01:15:08.589Z,100096.53
2019-04-26T01:17:38.058Z,100089.72
2019-04-26T01:20:08.132Z,100089.78
2019-04-26T01:22:41.527Z,100095.38
2019-04-26T01:25:32.963Z,100108.55
2019-04-26T01:28:03.307Z,100117.28
2019-04-26T01:30:34.146Z,100129.67
2019-04-26T01:33:04.231Z,100140.46
2019-04-26T01:35:33.845Z,100143.83
2019-04-26T01:38:05.196Z,100145.58
2019-04-26T01:40:36.246Z,100123.36
2019-04-26T01:43:16.152Z,100116.72
2019-04-26T01:45:57.882Z,100119.20
2019-04-26T01:48:48.513Z,100124.83
2019-04-26T01:51:24.880Z,100127.45
2019-04-26T01:53:54.379Z,100132.62
2019-04-26T01:56:27.765Z,100148.81
2019-04-26T01:58:57.101Z,100149.78
2019-04-26T02:01:49.259Z,100160.36
2019-04-26T02:04:18.933Z,100159.50
2019-04-26T02:06:48.390Z,100141.47
2019-04-26T02:09:17.745Z,100129.16
2019-04-26T02:11:47.265Z,100138.55
2019-04-26T02:14:16.876Z,100131.27
2019-04-26T02:16:46.369Z,100128.08
2019-04-26T02:19:15.863Z,100131.63
2019-04-26T02:21:52.821Z,100146.83
2019-04-26T02:24:30.091Z,100147.44
2019-04-26T02:27:01.790Z,100149.61
2019-04-26T02:29:31.309Z,100155.48
2019-04-26T02:32:03.768Z,100155.00
2019-04-26T02:34:36.006Z,100158.23
2019-04-26T02:37:08.338Z,100163.85
2019-04-26T02:39:40.355Z,100172.92
2019-04-26T02:42:39.543Z,100177.08
2019-04-26T02:45:33.791Z,100180.95
2019-04-26T02:48:30.432Z,100181.36
2019-04-26T02:51:04.032Z,100173.09
2019-04-26T02:54:02.891Z,100178.98
2019-04-26T02:56:38.241Z,100177.91
2019-04-26T02:59:40.421Z,100159.20
2019-04-26T03:02:22.022Z,100152.42
2019-04-26T03:04:57.688Z,100147.73
2019-04-26T03:08:00.639Z,100162.19
2019-04-26T03:10:57.585Z,100175.84
2019-04-26T03:13:43.745Z,100178.59
2019-04-26T03:16:35.170Z,100156.42
2019-04-26T03:19:27.483Z,100147.48
2019-04-26T03:22:06.964Z,100155.08
2019-04-26T03:24:44.154Z,100161.03
2019-04-26T03:27:51.969Z,100160.84
2019-04-26T03:30:42.268Z,100153.41
2019-04-26T03:33:53.174Z,100161.61
2019-04-26T03:36:54.162Z,100155.54
2019-04-26T03:39:46.466Z,100129.19
2019-04-26T03:42:36.463Z,100118.20
2019-04-26T03:45:27.108Z,100138.80
2019-04-26T03:48:10.500Z,100146.52
2019-04-26T03:50:47.674Z,100146.73
2019-04-26T03:53:43.882Z,100149.72
2019-04-26T03:57:13.760Z,100157.31
2019-04-26T04:00:22.025Z,100169.97
2019-04-26T04:03:26.633Z,100181.80
2019-04-26T04:05:56.966Z,100197.23
2019-04-26T04:08:33.532Z,100205.29
2019-04-26T04:11:08.702Z,100205.05
2019-04-26T04:14:07.704Z,100203.77
2019-04-26T04:16:58.015Z,100209.47
2019-04-26T04:20:15.002Z,100213.06
2019-04-26T04:22:49.261Z,100217.89
2019-04-26T04:25:25.844Z,100217.37
2019-04-26T04:28:09.051Z,100213.62
2019-04-26T04:30:45.942Z,100213.62
2019-04-26T04:34:00.515Z,100211.52
2019-04-26T04:36:41.527Z,100211.84
2019-04-26T04:39:21.903Z,100224.98
2019-04-26T04:42:19.753Z,100221.55
2019-04-26T04:45:28.979Z,100210.44
2019-04-26T04:48:29.245Z,100213.69
2019-04-26T04:51:42.877Z,100209.91
2019-04-26T04:54:18.134Z,100211.18
2019-04-26T04:57:17.130Z,100203.34
2019-04-26T05:00:24.677Z,100209.08
2019-04-26T05:03:28.114Z,100205.23
2019-04-26T05:06:42.830Z,100226.09
2019-04-26T05:09:18.509Z,100231.45
2019-04-26T05:11:55.976Z,100238.84
2019-04-26T05:14:52.261Z,100247.09
2019-04-26T05:17:39.525Z,100247.27
2019-04-26T05:20:31.630Z,100259.04
2019-04-26T05:23:47.139Z,100262.61
2019-04-26T05:26:54.386Z,100254.94
2019-04-26T05:29:39.767Z,100255.46
2019-04-26T05:32:27.727Z,100249.06
2019-04-26T05:35:07.241Z,100242.80
2019-04-26T05:38:18.650Z,100240.43
2019-04-26T05:41:34.033Z,100238.27
2019-04-26T05:44:23.256Z,100249.95
2019-04-26T05:48:05.302Z,100243.90
2019-04-26T05:51:18.506Z,100251.52
2019-04-26T05:54:44.261Z,100271.19
2019-04-26T05:58:03.230Z,100281.37
2019-04-26T06:01:07.200Z,100273.50
2019-04-26T06:04:39.446Z,100287.41
2019-04-26T06:07:38.899Z,100280.39
2019-04-26T06:10:31.638Z,100274.34
2019-04-26T06:13:36.252Z,100278.06
2019-04-26T06:16:43.883Z,100282.67
2019-04-26T06:19:27.360Z,100280.05
2019-04-26T06:22:10.973Z,100293.94
2019-04-26T06:25:10.917Z,100300.72
2019-04-26T06:27:58.376Z,100296.55
2019-04-26T06:30:45.546Z,100293.97
2019-04-26T06:33:29.704Z,100304.55
2019-04-26T06:36:01.799Z,100307.91
2019-04-26T06:39:33.400Z,100308.35
2019-04-26T06:42:59.199Z,100303.50
2019-04-26T06:46:24.254Z,100296.66
2019-04-26T06:49:42.344Z,100298.44
2019-04-26T06:52:15.561Z,100304.84
2019-04-26T06:54:56.269Z,100304.24
2019-04-26T06:57:53.186Z,100319.06
2019-04-26T07:00:27.767Z,100319.02
2019-04-26T07:03:10.481Z,100320.19
2019-04-26T07:05:41.705Z,100324.67
2019-04-26T07:08:42.009Z,100326.89
2019-04-26T07:12:05.193Z,100317.08
2019-04-26T07:15:02.315Z,100325.36
2019-04-26T07:18:10.775Z,100331.77
2019-04-26T07:20:52.768Z,100342.52
2019-04-26T07:24:13.461Z,100349.92
2019-04-26T07:27:48.308Z,100369.47
2019-04-26T07:30:49.910Z,100377.19
2019-04-26T07:34:16.747Z,100379.15
2019-04-26T07:37:22.951Z,100364.20
2019-04-26T07:40:36.047Z,100350.53
2019-04-26T07:43:28.248Z,100349.16
2019-04-26T07:46:44.062Z,100346.69
2019-04-26T07:49:56.161Z,100337.41
2019-04-26T07:53:03.228Z,100333.75
2019-04-26T07:56:19.325Z,100347.05
2019-04-26T07:59:24.390Z,100355.64
2019-04-26T08:02:33.788Z,100377.14
2019-04-26T08:05:15.908Z,100387.34
2019-04-26T08:07:48.881Z,100383.55
2019-04-26T08:10:19.863Z,100388.77
2019-04-26T08:12:56.546Z,100393.78
2019-04-26T08:15:48.041Z,100397.36
2019-04-26T08:18:32.797Z,100398.52
2019-04-26T08:21:15.207Z,100401.80
2019-04-26T08:23:56.459Z,100400.73
2019-04-26T08:26:26.387Z,100395.12
2019-04-26T08:29:00.571Z,100400.00
2019-04-26T08:31:29.641Z,100403.06
2019-04-26T08:34:03.983Z,100410.37
2019-04-26T08:36:39.411Z,100427.56
2019-04-26T08:39:18.211Z,100432.23
2019-04-26T08:41:49.480Z,100441.34
2019-04-26T08:44:35.926Z,100443.17
2019-04-26T08:47:26.119Z,100450.06
2019-04-26T08:50:15.220Z,100451.95
2019-04-26T08:52:46.507Z,100458.20
2019-04-26T08:55:17.521Z,100457.52
2019-04-26T08:57:48.220Z,100457.03
2019-04-26T09:00:56.764Z,100463.55
2019-04-26T09:03:43.371Z,100457.00
2019-04-26T09:06:20.188Z,100462.23
2019-04-26T09:08:50.736Z,100459.13
2019-04-26T09:11:25.801Z,100463.91
2019-04-26T09:13:54.003Z,100469.38
2019-04-26T09:16:23.780Z,100469.62
2019-04-26T09:18:57.295Z,100468.53
2019-04-26T09:21:34.520Z,100468.14
2019-04-26T09:24:14.438Z,100460.06
2019-04-26T09:26:57.700Z,100439.17
2019-04-26T09:29:44.800Z,100436.67
2019-04-26T09:32:20.506Z,100442.44
2019-04-26T09:34:50.017Z,100436.73
2019-04-26T09:37:19.580Z,100440.93
2019-04-26T09:39:49.173Z,100459.09
2019-04-26T09:42:39.425Z,100471.09
2019-04-26T09:45:34.817Z,100474.50
2019-04-26T09:48:08.897Z,100467.60
2019-04-26T09:50:41.471Z,100467.30
2019-04-26T09:53:11.023Z,100475.00
2019-04-26T09:55:40.443Z,100470.97
2019-04-26T09:58:09.866Z,100466.10
2019-04-26T10:00:39.515Z,100469.18
2019-04-26T10:03:09.568Z,100468.64
2019-04-26T10:05:40.160Z,100467.89
2019-04-26T10:08:13.091Z,100468.20
2019-04-26T10:10:41.014Z,100468.59
2019-04-26T10:13:32.974Z,100463.17
2019-04-26T10:16:17.075Z,100467.79
2019-04-26T10:18:50.479Z,100461.02
2019-04-26T10:21:19.926Z,100465.17
2019-04-26T10:23:49.573Z,100458.05
2019-04-26T10:26:19.006Z,100462.64
2019-04-26T10:28:50.717Z,100448.50
2019-04-26T10:31:20.866Z,100447.33
2019-04-26T10:33:50.491Z,100446.34
2019-04-26T10:36:20.035Z,100451.63
2019-04-26T10:38:49.546Z,100447.63
2019-04-26T10:41:19.060Z,100453.77
2019-04-26T10:43:48.602Z,100454.08
2019-04-26T10:46:17.989Z,100458.28
2019-04-26T10:48:49.924Z,100455.43
2019-04-26T10:51:24.113Z,100454.37
2019-04-26T10:54:11.760Z,100461.40
2019-04-26T10:57:02.901Z,100455.09
2019-04-26T10:59:53.823Z,100457.58
2019-04-26T11:02:23.511Z,100462.91
2019-04-26T11:04:53.314Z,100471.91
2019-04-26T11:07:22.813Z,100467.25
2019-04-26T11:09:52.346Z,100472.92
2019-04-26T11:12:22.052Z,100479.22
2019-04-26T11:14:53.310Z,100482.52
2019-04-26T11:17:22.706Z,100493.48
2019-04-26T11:19:52.295Z,100494.05
2019-04-26T11:22:28.899Z,100497.27
2019-04-26T11:24:53.901Z,100490.52
2019-04-26T11:27:24.063Z,100497.31
2019-04-26T11:29:54.257Z,100498.64
2019-04-26T11:32:23.662Z,100502.19
2019-04-26T11:34:54.512Z,100494.47
2019-04-26T11:37:24.379Z,100496.50
2019-04-26T11:39:53.970Z,100499.72
2019-04-26T11:42:23.411Z,100489.44
2019-04-26T11:44:53.037Z,100483.05
2019-04-26T11:47:22.459Z,100480.38
2019-04-26T11:49:52.065Z,100477.66
2019-04-26T11:52:21.541Z,100476.33
2019-04-26T11:54:51.219Z,100480.16
2019-04-26T11:57:22.123Z,100479.38
2019-04-26T11:59:57.661Z,100479.76
2019-04-26T12:02:27.063Z,100475.86
2019-04-26T12:05:30.702Z,100469.27
2019-04-26T12:08:04.286Z,100465.89
2019-04-26T12:10:34.002Z,100474.92
2019-04-26T12:13:06.020Z,100489.17
2019-04-26T12:15:34.690Z,100495.64
2019-04-26T12:18:05.610Z,100479.03
2019-04-26T12:20:35.433Z,100485.42
2019-04-26T12:23:05.112Z,100497.45
2019-04-26T12:25:38.791Z,100497.27
2019-04-26T12:28:07.299Z,100493.28
2019-04-26T12:30:38.000Z,100485.78
2019-04-26T12:33:07.440Z,100483.92
2019-04-26T12:35:36.991Z,100491.02
2019-04-26T12:38:06.493Z,100496.50
2019-04-26T12:40:36.067Z,100496.04
2019-04-26T12:43:05.466Z,100498.91
2019-04-26T12:46:03.260Z,100502.30
2019-04-26T12:48:32.740Z,100504.89
2019-04-26T12:51:02.347Z,100502.27
2019-04-26T12:53:32.945Z,100503.17
2019-04-26T12:56:02.508Z,100496.88
2019-04-26T12:58:31.915Z,100497.89
2019-04-26T13:01:02.601Z,100502.22
2019-04-26T13:03:31.975Z,100500.23
2019-04-26T13:06:01.501Z,100498.86
2019-04-26T13:08:31.090Z,100498.05
2019-04-26T13:11:22.340Z,100500.19
2019-04-26T13:14:16.053Z,100495.39
2019-04-26T13:17:04.956Z,100481.34
2019-04-26T13:19:34.483Z,100478.88
2019-04-26T13:22:04.029Z,100474.00
2019-04-26T13:24:35.512Z,100482.95
2019-04-26T13:27:06.128Z,100482.13
2019-04-26T13:29:36.000Z,100476.81
2019-04-26T13:32:05.599Z,100482.11
2019-04-26T13:34:37.307Z,100486.26
2019-04-26T13:37:07.006Z,100480.58
2019-04-26T13:39:37.504Z,100484.08
2019-04-26T13:42:09.514Z,100480.81
2019-04-26T13:45:12.356Z,100480.67
2019-04-26T13:48:03.487Z,100485.37
2019-04-26T13:50:39.528Z,100494.61
2019-04-26T13:53:08.927Z,100494.97
2019-04-26T13:55:38.565Z,100503.07
2019-04-26T13:58:08.018Z,100511.23
2019-04-26T14:00:39.786Z,100509.38
2019-04-26T14:03:08.944Z,100514.73
2019-04-26T14:05:38.479Z,100516.26
2019-04-26T14:08:08.004Z,100512.92
2019-04-26T14:10:49.695Z,100510.48
2019-04-26T14:13:20.754Z,100516.64
2019-04-26T14:15:51.639Z,100515.25
2019-04-26T14:18:19.339Z,100512.03
2019-04-26T14:20:48.820Z,100509.86
2019-04-26T14:23:52.341Z,100513.07
2019-04-26T14:26:35.233Z,100515.61
2019-04-26T14:29:04.217Z,100525.05
2019-04-26T14:31:33.621Z,100514.23
2019-04-26T14:34:05.526Z,100508.52
2019-04-26T14:36:34.423Z,100510.43
2019-04-26T14:39:06.426Z,100508.13
2019-04-26T14:41:35.969Z,100511.84
2019-04-26T14:44:15.356Z,100519.53
2019-04-26T14:46:48.270Z,100512.06
2019-04-26T14:49:08.114Z,100507.75
2019-04-26T14:51:40.526Z,100512.88
2019-04-26T14:54:11.440Z,100515.80
2019-04-26T14:56:51.677Z,100510.56
2019-04-26T14:59:12.209Z,100518.94
2019-04-26T15:02:06.344Z,100526.09
2019-04-26T15:04:44.628Z,100531.64
2019-04-26T15:07:22.830Z,100524.80
2019-04-26T15:09:52.963Z,100528.61
2019-04-26T15:12:22.615Z,100527.77
2019-04-26T15:14:53.774Z,100526.78
2019-04-26T15:17:26.478Z,100534.12
2019-04-26T15:19:54.597Z,100533.16
2019-04-26T15:22:24.427Z,100534.73
2019-04-26T15:24:54.046Z,100525.21
2019-04-26T15:27:23.447Z,100523.09
2019-04-26T15:29:52.814Z,100525.84
2019-04-26T15:32:23.998Z,100524.34
2019-04-26T15:34:55.029Z,100522.89
2019-04-26T15:37:28.187Z,100530.48
2019-04-26T15:40:16.479Z,100531.82
2019-04-26T15:43:14.738Z,100526.88
2019-04-26T15:45:53.730Z,100519.53
2019-04-26T15:48:35.166Z,100524.04
2019-04-26T15:51:20.134Z,100514.98
2019-04-26T15:53:49.042Z,100520.02
2019-04-26T15:56:19.240Z,100515.23
2019-04-26T15:58:49.206Z,100496.01
2019-04-26T16:01:18.881Z,100499.27
2019-04-26T16:03:48.482Z,100494.66
2019-04-26T16:06:17.976Z,100491.86
2019-04-26T16:08:47.516Z,100494.71
2019-04-26T16:11:16.997Z,100489.55
2019-04-26T16:13:52.152Z,100493.03
2019-04-26T16:16:20.649Z,100501.18
2019-04-26T16:18:53.403Z,100502.59
2019-04-26T16:21:19.913Z,100503.41
2019-04-26T16:23:54.106Z,100502.92
2019-04-26T16:26:20.454Z,100491.14
2019-04-26T16:29:08.821Z,100500.06
2019-04-26T16:31:49.983Z,100497.79
2019-04-26T16:34:19.897Z,100498.41
2019-04-26T16:36:49.334Z,100498.80
2019-04-26T16:39:18.755Z,100496.34
2019-04-26T16:41:54.001Z,100499.68
2019-04-26T16:44:29.497Z,100497.45
2019-04-26T16:47:01.329Z,100499.02
2019-04-26T16:49:25.913Z,100504.47
2019-04-26T16:52:02.159Z,100522.04
2019-04-26T16:54:26.879Z,100517.41
2019-04-26T16:56:59.083Z,100529.89
2019-04-26T16:59:27.906Z,100518.55
2019-04-26T17:02:01.446Z,100517.30
2019-04-26T17:04:35.218Z,100518.77
2019-04-26T17:07:02.851Z,100523.74
2019-04-26T17:09:52.301Z,100521.56
2019-04-26T17:12:02.528Z,100520.75
2019-04-26T17:14:34.169Z,100521.27
2019-04-26T17:17:07.079Z,100519.82
2019-04-26T17:19:37.465Z,100517.62
2019-04-26T17:22:19.276Z,100516.03
2019-04-26T17:25:02.654Z,100519.67
2019-04-26T17:27:33.057Z,100520.42
2019-04-26T17:30:04.550Z,100516.98
2019-04-26T17:32:35.084Z,100520.94
2019-04-26T17:35:07.475Z,100523.48
2019-04-26T17:37:36.485Z,100523.13
2019-04-26T17:40:06.215Z,100522.98
2019-04-26T17:42:36.364Z,100527.83
2019-04-26T17:45:07.122Z,100524.77
2019-04-26T17:47:40.139Z,100522.98
2019-04-26T17:50:10.898Z,100528.48
2019-04-26T17:52:40.893Z,100529.34
2019-04-26T17:55:14.250Z,100522.30
2019-04-26T17:57:48.518Z,100523.93
2019-04-26T18:00:20.883Z,100528.20
2019-04-26T18:02:48.353Z,100524.87
2019-04-26T18:05:19.166Z,100528.61
2019-04-26T18:07:55.925Z,100530.59
2019-04-26T18:10:20.677Z,100540.08
2019-04-26T18:12:50.752Z,100538.75
2019-04-26T18:15:20.456Z,100540.39
2019-04-26T18:18:21.263Z,100539.02
2019-04-26T18:21:08.442Z,100539.06
2019-04-26T18:23:37.781Z,100544.39
2019-04-26T18:26:07.296Z,100543.77
2019-04-26T18:28:36.798Z,100538.52
2019-04-26T18:31:08.089Z,100545.59
2019-04-26T18:33:37.567Z,100545.47
2019-04-26T18:36:07.133Z,100549.92
2019-04-26T18:38:36.570Z,100562.41
2019-04-26T18:41:06.069Z,100558.44
2019-04-26T18:43:35.590Z,100559.55
2019-04-26T18:46:12.741Z,100550.96
2019-04-26T18:48:43.680Z,100542.42
2019-04-26T18:51:13.573Z,100547.84
2019-04-26T18:54:09.284Z,100538.36
2019-04-26T18:56:40.695Z,100540.74
2019-04-26T18:59:11.832Z,100549.37
2019-04-26T19:01:42.113Z,100557.94
2019-04-26T19:04:14.900Z,100571.19
2019-04-26T19:06:43.464Z,100587.09
2019-04-26T19:09:13.831Z,100585.63
2019-04-26T19:11:48.715Z,100584.73
2019-04-26T19:14:32.227Z,100578.49
2019-04-26T19:17:30.120Z,100588.58
2019-04-26T19:20:26.103Z,100589.33
2019-04-26T19:23:00.146Z,100597.83
2019-04-26T19:25:33.286Z,100597.97
2019-04-26T19:28:04.285Z,100605.38
2019-04-26T19:30:32.212Z,100605.94
2019-04-26T19:33:02.141Z,100607.22
2019-04-26T19:35:32.893Z,100607.73
2019-04-26T19:38:03.273Z,100603.75
2019-04-26T19:40:32.792Z,100607.19
2019-04-26T19:43:07.677Z,100611.44
2019-04-26T19:45:47.251Z,100609.80
2019-04-26T19:48:31.800Z,100615.14
2019-04-26T19:51:26.999Z,100609.59
2019-04-26T19:54:21.456Z,100609.51
2019-04-26T19:57:01.106Z,100609.20
2019-04-26T19:59:33.040Z,100612.39
2019-04-26T20:02:01.698Z,100613.20
2019-04-26T20:04:34.064Z,100608.05
2019-04-26T20:07:02.457Z,100607.84
2019-04-26T20:09:31.997Z,100602.60
2019-04-26T20:12:02.550Z,100605.36
2019-04-26T20:14:45.049Z,100607.09
2019-04-26T20:17:03.352Z,100602.36
2019-04-26T20:19:37.276Z,100611.32
2019-04-26T20:22:04.141Z,100605.33
2019-04-26T20:24:33.626Z,100601.24
2019-04-26T20:27:03.528Z,100598.38
2019-04-26T20:29:33.237Z,100600.22
2019-04-26T20:32:33.882Z,100599.02
2019-04-26T20:35:13.083Z,100597.05
2019-04-26T20:37:45.113Z,100585.73
2019-04-26T20:40:20.210Z,100580.71
2019-04-26T20:42:45.382Z,100582.67
2019-04-26T20:45:16.966Z,100581.94
2019-04-26T20:47:46.793Z,100582.13
2019-04-26T20:50:17.689Z,100576.55
2019-04-26T20:52:47.305Z,100564.72
2019-04-26T20:55:16.806Z,100569.23
2019-04-26T20:57:46.296Z,100569.91
2019-04-26T21:00:16.913Z,100572.14
2019-04-26T21:02:46.313Z,100569.86
2019-04-26T21:05:15.707Z,100563.33
2019-04-26T21:07:49.103Z,100571.00
2019-04-26T21:10:21.941Z,100581.77
2019-04-26T21:12:52.178Z,100586.02
2019-04-26T21:15:20.140Z,100584.88
2019-04-26T21:17:51.783Z,100586.44
2019-04-26T21:20:21.643Z,100589.09
2019-04-26T21:22:52.371Z,100583.83
2019-04-26T21:25:32.603Z,100587.22
2019-04-26T21:28:11.591Z,100578.63
2019-04-26T21:30:55.859Z,100578.83
2019-04-26T21:33:44.224Z,100573.33
2019-04-26T21:36:34.748Z,100567.35
2019-04-26T21:39:23.348Z,100568.02
2019-04-26T21:41:53.236Z,100563.55
2019-04-26T21:44:22.797Z,100564.92
2019-04-26T21:46:56.249Z,100555.23
2019-04-26T21:49:24.356Z,100555.50
2019-04-26T21:51:54.348Z,100552.09
2019-04-26T21:54:25.202Z,100560.36
2019-04-26T21:56:54.871Z,100567.62
2019-04-26T21:59:24.461Z,100560.95
2019-04-26T22:01:58.995Z,100558.38
2019-04-26T22:04:28.916Z,100558.20
2019-04-26T22:06:59.896Z,100556.71
2019-04-26T22:09:46.300Z,100556.33
2019-04-26T22:12:16.933Z,100555.69
2019-04-26T22:14:50.668Z,100552.81
2019-04-26T22:17:30.451Z,100551.02
2019-04-26T22:20:16.362Z,100548.86
2019-04-26T22:22:59.262Z,100550.55
2019-04-26T22:25:30.695Z,100547.67
2019-04-26T22:28:01.323Z,100547.02
2019-04-26T22:30:33.034Z,100545.67
2019-04-26T22:33:03.043Z,100546.63
2019-04-26T22:35:32.674Z,100553.80
2019-04-26T22:38:03.662Z,100555.80
2019-04-26T22:40:33.565Z,100544.78
2019-04-26T22:43:21.010Z,100546.69
2019-04-26T22:46:03.192Z,100545.42
2019-04-26T22:48:35.949Z,100544.09
2019-04-26T22:51:05.615Z,100550.37
2019-04-26T22:53:34.982Z,100547.22
2019-04-26T22:56:05.003Z,100552.10
2019-04-26T22:58:34.734Z,100553.84
2019-04-26T23:01:06.338Z,100551.29
2019-04-26T23:03:36.569Z,100549.89
2019-04-26T23:06:07.911Z,100550.52
2019-04-26T23:08:38.298Z,100549.47
2019-04-26T23:11:09.116Z,100553.30
2019-04-26T23:13:56.960Z,100544.78
2019-04-26T23:17:05.688Z,100554.41
2019-04-26T23:19:57.532Z,100544.78
2019-04-26T23:22:31.086Z,100542.52
2019-04-26T23:24:59.190Z,100549.53
2019-04-26T23:27:28.665Z,100554.08
2019-04-26T23:29:58.492Z,100556.36
2019-04-26T23:32:28.120Z,100561.70
2019-04-26T23:34:58.212Z,100557.67
2019-04-26T23:37:28.682Z,100554.39
2019-04-26T23:39:58.172Z,100558.07
2019-04-26T23:42:27.602Z,100557.96
2019-04-26T23:44:57.092Z,100551.60
2019-04-26T23:47:26.598Z,100551.89
2019-04-26T23:49:56.977Z,100543.98
2019-04-26T23:52:26.633Z,100538.54
2019-04-26T23:54:56.007Z,100550.80
2019-04-26T23:57:27.502Z,100546.69
2019-04-26T23:59:59.947Z,100551.09
